Lake City, CO

8:18 AM MDT on October 31, 2014 (GMT -0600)
Montrose Regional | Change Station
CLOSE
Current Station
Airport
Location: Montrose,
Elevation: 5758 ft
Nearby Weather Stations
Active Advisory: Special Statement

Elev 5758 ft 38.51 °N, 107.90 °W | Updated 25 minutes ago

Partly Cloudy
Partly Cloudy
34 °F
Feels Like 29 °F
N
6
Wind Variable Wind from SE

Today
High -- | Low -- °F
--% Chance of Precip.
Yesterday
High -- | Low -- °F
Precip. -- in
7:34 AM 6:11 PM
First Quarter, 55% visible
Pressure 30.22 in
Visibility 10.0 miles
Clouds Clear
Windchill 29 °F
Dew Point 23 °F
Humidity 64%
Rainfall 0.00 in
Snow Depth Not available.
UV 0 out of 12
Pollen 1.40 out of 12
Air Quality Not available.
Flu Activity Not available.
METAR KMTJ 311353Z AUTO 13005KT 10SM CLR 01/M05 A3027 RMK AO2 SLP232 T00111050

More Conditions Fewer Conditions

Pressure 30.22 in
Visibility 10.0 miles
Clouds Clear
Windchill 29 °F
Dew Point 23 °F
Humidity 64%
Rainfall 0.00 in
Snow Depth Not available.
UV 0 out of 12
Pollen 1.40 out of 12
Air Quality Not available.
Flu Activity Not available.
METAR KMTJ 311353Z AUTO 13005KT 10SM CLR 01/M05 A3027 RMK AO2 SLP232 T00111050

More Conditions Fewer Conditions

10-Day Weather Forecast

Almanac

Astronomy

Oct. 31, 2014 Rise Set
Actual Time
Civil Twilight
Nautical Twilight
Astronomical Twilight
Moon
Length of Visible Light
Length of Day
Tomorrow will be .
, % of the Moon is Illuminated

Today's Extremes

State Highs State Lows

Community

WunderPhotos

Upload Photos

1,766,617 photos uploaded!

WunderBlogs® & News

Nearby

Air Quality

  Air Quality AQ Index Pollutant
Not available.

Snow Depth

Station Depth Elevation

Earthquake Activity

City Distance Mag. Time & Date
Minimum magnitude displayed is 2.5.

Coastal Water Temperatures

Place Temperature

Nearby Weather Stations